createdAt,value
2023-05-20T00:01:37.804Z,0.60
2023-05-20T00:04:04.490Z,0.50
2023-05-20T00:06:32.137Z,0.50
2023-05-20T00:09:00.295Z,0.90
2023-05-20T00:11:27.097Z,0.60
2023-05-20T00:13:53.501Z,0.50
2023-05-20T00:16:22.739Z,0.75
2023-05-20T00:18:49.299Z,0.60
2023-05-20T00:21:15.782Z,0.60
2023-05-20T00:23:42.290Z,0.70
2023-05-20T00:26:08.855Z,0.73
2023-05-20T00:28:35.297Z,0.70
2023-05-20T00:31:01.741Z,0.65
2023-05-20T00:33:28.186Z,0.70
2023-05-20T00:35:54.707Z,0.88
2023-05-20T00:38:21.172Z,0.68
2023-05-20T00:40:47.652Z,0.63
2023-05-20T00:43:14.110Z,0.75
2023-05-20T00:45:40.680Z,0.50
2023-05-20T00:48:07.480Z,0.50
2023-05-20T00:50:40.540Z,0.80
2023-05-20T00:53:07.021Z,0.63
2023-05-20T00:55:33.796Z,0.70
2023-05-20T00:58:00.795Z,0.77
2023-05-20T01:00:27.339Z,0.70
2023-05-20T01:02:55.659Z,0.73
2023-05-20T01:05:22.263Z,0.68
2023-05-20T01:07:48.792Z,0.75
2023-05-20T01:10:15.303Z,0.70
2023-05-20T01:12:52.287Z,0.77
2023-05-20T01:15:19.524Z,1.00
2023-05-20T01:17:47.033Z,0.90
2023-05-20T01:20:14.393Z,0.70
2023-05-20T01:22:52.790Z,1.00
2023-05-20T01:25:19.449Z,1.20
2023-05-20T01:27:46.985Z,0.73
2023-05-20T01:30:16.363Z,0.60
2023-05-20T01:32:48.616Z,0.90
2023-05-20T01:35:16.151Z,0.90
2023-05-20T01:37:43.452Z,0.70
2023-05-20T01:40:11.003Z,0.70
2023-05-20T01:42:37.951Z,0.70
2023-05-20T01:45:04.786Z,0.75
2023-05-20T01:47:31.343Z,0.77
2023-05-20T01:49:57.879Z,0.75
2023-05-20T01:52:24.394Z,0.70
2023-05-20T01:54:53.632Z,1.00
2023-05-20T01:57:23.101Z,0.80
2023-05-20T01:59:49.981Z,0.75
2023-05-20T02:02:16.986Z,0.80
2023-05-20T02:04:47.926Z,0.75
2023-05-20T02:07:15.328Z,1.00
2023-05-20T02:09:41.991Z,0.90
2023-05-20T02:12:09.209Z,0.65
2023-05-20T02:14:35.763Z,0.68
2023-05-20T02:17:02.189Z,0.80
2023-05-20T02:19:28.717Z,0.90
2023-05-20T02:21:55.287Z,0.60
2023-05-20T02:24:21.730Z,0.50
2023-05-20T02:26:51.177Z,0.82
2023-05-20T02:31:44.365Z,0.65
2023-05-20T02:34:10.883Z,0.75
2023-05-20T02:36:37.440Z,0.80
2023-05-20T02:39:03.965Z,0.60
2023-05-20T02:41:30.515Z,0.52
2023-05-20T02:43:57.020Z,0.52
2023-05-20T02:46:24.637Z,0.47
2023-05-20T02:48:51.145Z,0.50
2023-05-20T02:51:17.610Z,0.40
2023-05-20T02:53:44.034Z,0.50
2023-05-20T02:56:11.065Z,0.50
2023-05-20T02:58:37.551Z,0.40
2023-05-20T03:01:07.152Z,0.47
2023-05-20T03:03:33.648Z,0.55
2023-05-20T03:06:00.084Z,0.77
2023-05-20T03:08:27.012Z,0.45
2023-05-20T03:10:53.525Z,0.50
2023-05-20T03:13:22.121Z,0.45
2023-05-20T03:15:48.621Z,0.30
2023-05-20T03:18:15.067Z,0.70
2023-05-20T03:20:47.149Z,0.50
2023-05-20T03:23:13.622Z,0.50
2023-05-20T03:25:40.228Z,0.70
2023-05-20T03:28:06.922Z,0.50
2023-05-20T03:30:33.389Z,0.50
2023-05-20T03:32:59.851Z,0.60
2023-05-20T03:35:26.540Z,0.50
2023-05-20T03:37:53.488Z,0.85
2023-05-20T03:40:23.144Z,0.40
2023-05-20T03:42:51.063Z,0.50
2023-05-20T03:45:17.598Z,0.75
2023-05-20T03:47:44.032Z,0.93
2023-05-20T03:50:10.855Z,0.50
2023-05-20T03:52:37.416Z,0.40
2023-05-20T03:55:04.400Z,0.63
2023-05-20T03:57:32.314Z,0.50
2023-05-20T03:59:58.767Z,0.60
2023-05-20T04:02:25.602Z,0.60
2023-05-20T04:04:53.000Z,0.50
2023-05-20T04:07:19.694Z,0.50
2023-05-20T04:09:46.780Z,0.50
2023-05-20T04:12:14.009Z,0.60
2023-05-20T04:14:42.192Z,0.50
2023-05-20T04:17:09.707Z,0.55
2023-05-20T04:19:36.454Z,0.40
2023-05-20T04:22:02.963Z,0.60
2023-05-20T04:24:29.431Z,0.60
2023-05-20T04:26:55.906Z,0.40
2023-05-20T04:29:23.065Z,0.57
2023-05-20T04:31:49.593Z,0.50
2023-05-20T04:34:19.597Z,0.60
2023-05-20T04:36:46.118Z,0.63
2023-05-20T04:39:12.807Z,0.60
2023-05-20T04:41:39.931Z,0.60
2023-05-20T04:44:06.496Z,0.40
2023-05-20T04:46:33.949Z,0.50
2023-05-20T04:49:00.433Z,0.82
2023-05-20T04:51:26.894Z,0.60
2023-05-20T04:53:53.356Z,0.50
2023-05-20T04:56:19.787Z,0.80
2023-05-20T04:58:49.153Z,0.95
2023-05-20T05:03:42.173Z,0.70
2023-05-20T05:06:08.627Z,0.70
2023-05-20T05:08:35.177Z,0.60
2023-05-20T05:11:01.642Z,0.68
2023-05-20T05:13:28.024Z,0.88
2023-05-20T05:16:00.695Z,0.68
2023-05-20T05:18:27.576Z,0.60
2023-05-20T05:21:00.818Z,1.63
2023-05-20T05:23:27.409Z,0.50
2023-05-20T05:25:54.409Z,0.70
2023-05-20T05:28:20.816Z,0.50
2023-05-20T05:30:47.239Z,0.70
2023-05-20T05:33:17.495Z,0.57
2023-05-20T05:35:44.157Z,0.60
2023-05-20T05:38:10.617Z,0.60
2023-05-20T05:40:37.369Z,0.55
2023-05-20T05:43:03.981Z,0.60
2023-05-20T05:45:30.580Z,0.63
2023-05-20T05:47:57.194Z,0.80
2023-05-20T05:50:23.729Z,0.52
2023-05-20T05:52:50.147Z,0.90
2023-05-20T05:55:16.802Z,0.85
2023-05-20T05:57:43.286Z,0.73
2023-05-20T06:00:09.991Z,0.60
2023-05-20T06:02:36.746Z,0.68
2023-05-20T06:05:03.809Z,0.98
2023-05-20T06:07:30.275Z,0.80
2023-05-20T06:09:56.896Z,0.70
2023-05-20T06:12:23.349Z,0.70
2023-05-20T06:14:49.830Z,0.70
2023-05-20T06:17:16.391Z,0.73
2023-05-20T06:19:42.846Z,0.57
2023-05-20T06:22:09.526Z,0.80
2023-05-20T06:24:36.083Z,0.82
2023-05-20T06:27:03.352Z,0.75
2023-05-20T06:29:29.926Z,0.90
2023-05-20T06:31:56.729Z,0.70
2023-05-20T06:34:23.298Z,0.80
2023-05-20T06:36:49.733Z,0.93
2023-05-20T06:39:16.399Z,0.73
2023-05-20T06:41:42.985Z,0.75
2023-05-20T06:44:09.693Z,1.05
2023-05-20T06:46:36.393Z,0.80
2023-05-20T06:49:03.267Z,0.93
2023-05-20T06:51:29.783Z,0.93
2023-05-20T06:54:00.651Z,0.90
2023-05-20T06:56:27.097Z,0.90
2023-05-20T06:58:53.591Z,0.65
2023-05-20T07:01:20.141Z,0.80
2023-05-20T07:03:46.755Z,0.80
2023-05-20T07:06:13.465Z,0.77
2023-05-20T07:08:39.942Z,0.70
2023-05-20T07:11:06.418Z,0.80
2023-05-20T07:13:32.860Z,0.90
2023-05-20T07:15:59.565Z,0.90
2023-05-20T07:18:26.101Z,0.98
2023-05-20T07:20:53.036Z,0.82
2023-05-20T07:23:19.594Z,0.90
2023-05-20T07:25:46.154Z,0.88
2023-05-20T07:28:15.914Z,0.82
2023-05-20T07:30:42.486Z,0.82
2023-05-20T07:33:08.943Z,0.82
2023-05-20T07:35:35.788Z,1.00
2023-05-20T07:38:02.682Z,1.20
2023-05-20T07:40:29.166Z,0.90
2023-05-20T07:42:58.100Z,1.00
2023-05-20T07:45:24.693Z,0.93
2023-05-20T07:47:51.151Z,0.80
2023-05-20T07:50:17.625Z,0.95
2023-05-20T07:52:55.123Z,1.13
2023-05-20T07:55:22.283Z,0.85
2023-05-20T07:57:48.773Z,0.90
2023-05-20T08:00:15.919Z,0.80
2023-05-20T08:02:42.544Z,0.80
2023-05-20T08:05:09.480Z,0.93
2023-05-20T08:07:36.122Z,0.98
2023-05-20T08:10:04.225Z,0.80
2023-05-20T08:12:30.716Z,0.90
2023-05-20T08:14:57.127Z,0.80
2023-05-20T08:17:23.748Z,1.10
2023-05-20T08:19:50.259Z,1.00
2023-05-20T08:22:17.253Z,0.90
2023-05-20T08:24:43.731Z,0.70
2023-05-20T08:27:10.168Z,0.93
2023-05-20T08:29:36.597Z,0.80
2023-05-20T08:32:03.037Z,1.02
2023-05-20T08:34:29.541Z,1.23
2023-05-20T08:36:57.736Z,0.90
2023-05-20T08:39:24.217Z,0.90
2023-05-20T08:41:50.811Z,1.23
2023-05-20T08:44:17.930Z,0.88
2023-05-20T08:46:44.554Z,0.90
2023-05-20T08:49:11.124Z,0.80
2023-05-20T08:51:37.899Z,0.68
2023-05-20T08:54:04.368Z,0.90
2023-05-20T08:56:31.708Z,0.75
2023-05-20T08:58:58.240Z,0.90
2023-05-20T09:01:27.712Z,0.90
2023-05-20T09:03:54.309Z,0.80
2023-05-20T09:06:21.056Z,0.88
2023-05-20T09:08:53.262Z,0.90
2023-05-20T09:11:20.155Z,0.90
2023-05-20T09:13:46.610Z,0.90
2023-05-20T09:16:13.545Z,0.90
2023-05-20T09:18:40.833Z,0.90
2023-05-20T09:21:07.280Z,0.80
2023-05-20T09:23:36.630Z,0.90
2023-05-20T09:26:04.325Z,0.80
2023-05-20T09:28:30.917Z,0.82
2023-05-20T09:31:00.789Z,0.90
2023-05-20T09:33:28.389Z,1.00
2023-05-20T09:36:01.780Z,0.77
2023-05-20T09:38:28.936Z,0.77
2023-05-20T09:40:55.640Z,0.70
2023-05-20T09:43:24.870Z,0.73
2023-05-20T09:45:55.553Z,1.00
2023-05-20T09:48:22.490Z,1.08
2023-05-20T09:50:50.286Z,0.70
2023-05-20T09:53:17.113Z,1.08
2023-05-20T09:55:43.854Z,1.15
2023-05-20T09:58:14.793Z,1.00
2023-05-20T10:00:42.646Z,0.70
2023-05-20T10:03:09.793Z,0.77
2023-05-20T10:05:42.011Z,0.90
2023-05-20T10:08:27.053Z,0.85
2023-05-20T10:11:02.427Z,0.80
2023-05-20T10:13:31.902Z,1.00
2023-05-20T10:15:58.405Z,0.70
2023-05-20T10:18:54.217Z,1.00
2023-05-20T10:21:24.643Z,0.77
2023-05-20T10:23:51.861Z,0.80
2023-05-20T10:26:19.071Z,0.80
2023-05-20T10:28:46.194Z,0.70
2023-05-20T10:31:21.312Z,0.70
2023-05-20T10:33:48.300Z,1.00
2023-05-20T10:36:26.356Z,0.60
2023-05-20T10:38:53.823Z,0.70
2023-05-20T10:41:24.910Z,0.82
2023-05-20T10:44:01.627Z,0.90
2023-05-20T10:46:36.674Z,0.50
2023-05-20T10:49:20.566Z,0.80
2023-05-20T10:51:49.076Z,0.88
2023-05-20T10:54:15.766Z,0.70
2023-05-20T10:56:51.510Z,0.60
2023-05-20T10:59:18.071Z,1.02
2023-05-20T11:01:45.869Z,2.58
2023-05-20T11:04:13.439Z,0.80
2023-05-20T11:06:49.750Z,0.60
2023-05-20T11:09:16.596Z,0.82
2023-05-20T11:11:43.129Z,0.88
2023-05-20T11:14:13.613Z,0.60
2023-05-20T11:16:40.386Z,0.70
2023-05-20T11:19:19.252Z,0.60
2023-05-20T11:21:46.270Z,0.70
2023-05-20T11:24:13.279Z,0.70
2023-05-20T11:26:40.564Z,0.60
2023-05-20T11:29:07.073Z,0.80
2023-05-20T11:31:33.655Z,0.65
2023-05-20T11:34:01.611Z,0.77
2023-05-20T11:38:57.083Z,0.50
2023-05-20T11:41:24.550Z,0.63
2023-05-20T11:43:55.820Z,0.70
2023-05-20T11:46:22.417Z,0.50
2023-05-20T11:48:55.201Z,0.63
2023-05-20T11:51:25.757Z,0.50
2023-05-20T11:53:53.685Z,0.60
2023-05-20T11:58:46.557Z,0.80
2023-05-20T12:01:21.462Z,0.80
2023-05-20T12:03:48.616Z,0.70
2023-05-20T12:06:19.655Z,0.50
2023-05-20T12:08:47.463Z,0.60
2023-05-20T12:11:13.996Z,0.70
2023-05-20T12:13:40.820Z,0.70
2023-05-20T12:16:07.331Z,0.65
2023-05-20T12:18:33.834Z,0.82
2023-05-20T12:21:00.942Z,0.60
2023-05-20T12:23:29.492Z,0.85
2023-05-20T12:25:56.104Z,0.85
2023-05-20T12:28:22.504Z,0.70
2023-05-20T12:30:52.048Z,0.70
2023-05-20T12:33:19.986Z,0.57
2023-05-20T12:35:46.911Z,0.70
2023-05-20T12:38:13.315Z,0.80
2023-05-20T12:40:39.878Z,0.60
2023-05-20T12:43:06.537Z,0.60
2023-05-20T12:45:32.960Z,0.80
2023-05-20T12:47:59.803Z,0.80
2023-05-20T12:50:27.336Z,0.70
2023-05-20T12:55:20.207Z,0.60
2023-05-20T12:57:47.266Z,0.70
2023-05-20T13:00:13.991Z,0.73
2023-05-20T13:02:41.889Z,0.57
2023-05-20T13:05:09.846Z,0.80
2023-05-20T13:07:42.399Z,0.60
2023-05-20T13:10:10.606Z,0.70
2023-05-20T13:12:37.730Z,0.80
2023-05-20T13:15:04.673Z,0.70
2023-05-20T13:17:32.005Z,0.80
2023-05-20T13:19:58.735Z,0.60
2023-05-20T13:22:25.202Z,0.70
2023-05-20T13:24:51.668Z,0.80
2023-05-20T13:27:18.156Z,0.85
2023-05-20T13:29:44.695Z,0.80
2023-05-20T13:32:11.300Z,0.70
2023-05-20T13:34:38.789Z,1.20
2023-05-20T13:37:05.536Z,0.70
2023-05-20T13:39:32.143Z,0.73
2023-05-20T13:41:59.029Z,0.90
2023-05-20T13:44:25.604Z,0.80
2023-05-20T13:46:52.159Z,0.80
2023-05-20T13:49:18.742Z,0.90
2023-05-20T13:51:46.071Z,0.77
2023-05-20T13:56:38.957Z,0.70
2023-05-20T13:59:05.554Z,0.90
2023-05-20T14:01:35.127Z,0.70
2023-05-20T14:04:01.767Z,0.77
2023-05-20T14:06:29.414Z,0.73
2023-05-20T14:08:56.600Z,1.00
2023-05-20T14:11:23.131Z,1.33
2023-05-20T14:13:49.594Z,0.90
2023-05-20T14:16:16.279Z,0.90
2023-05-20T14:18:42.826Z,0.73
2023-05-20T14:21:09.275Z,0.90
2023-05-20T14:23:38.343Z,0.80
2023-05-20T14:26:04.922Z,0.70
2023-05-20T14:28:31.573Z,0.65
2023-05-20T14:30:58.091Z,0.68
2023-05-20T14:33:24.661Z,0.77
2023-05-20T14:35:51.208Z,0.80
2023-05-20T14:38:18.834Z,0.80
2023-05-20T14:40:45.347Z,0.80
2023-05-20T14:43:11.838Z,0.75
2023-05-20T14:45:41.280Z,0.80
2023-05-20T14:48:08.109Z,0.70
2023-05-20T14:50:35.083Z,0.67
2023-05-20T14:53:04.389Z,1.00
2023-05-20T14:55:30.940Z,0.90
2023-05-20T14:57:57.467Z,1.20
2023-05-20T15:00:24.229Z,0.75
2023-05-20T15:02:50.820Z,0.77
2023-05-20T15:05:18.153Z,0.80
2023-05-20T15:07:44.921Z,0.88
2023-05-20T15:10:13.224Z,1.08
2023-05-20T15:12:39.724Z,0.80
2023-05-20T15:15:06.493Z,0.90
2023-05-20T15:17:32.965Z,0.80
2023-05-20T15:19:59.552Z,0.80
2023-05-20T15:22:26.208Z,0.98
2023-05-20T15:24:52.748Z,0.70
2023-05-20T15:27:19.321Z,0.75
2023-05-20T15:29:45.913Z,1.10
2023-05-20T15:32:12.349Z,0.70
2023-05-20T15:34:38.823Z,0.80
2023-05-20T15:37:05.291Z,0.85
2023-05-20T15:39:32.011Z,0.90
2023-05-20T15:42:02.903Z,0.70
2023-05-20T15:44:29.830Z,0.85
2023-05-20T15:46:56.316Z,0.80
2023-05-20T15:49:22.749Z,0.88
2023-05-20T15:51:59.361Z,0.70
2023-05-20T15:54:29.826Z,0.90
2023-05-20T15:56:56.377Z,0.82
2023-05-20T15:59:22.865Z,1.02
2023-05-20T16:01:49.381Z,1.00
2023-05-20T16:04:16.146Z,0.95
2023-05-20T16:06:42.758Z,1.00
2023-05-20T16:09:09.165Z,1.00
2023-05-20T16:11:36.395Z,1.13
2023-05-20T16:14:02.880Z,1.10
2023-05-20T16:16:29.413Z,1.08
2023-05-20T16:19:05.145Z,1.20
2023-05-20T16:21:31.771Z,0.90
2023-05-20T16:23:58.763Z,1.02
2023-05-20T16:26:26.126Z,0.85
2023-05-20T16:28:52.709Z,1.10
2023-05-20T16:31:19.671Z,1.05
2023-05-20T16:33:46.300Z,0.90
2023-05-20T16:36:12.782Z,1.00
2023-05-20T16:38:39.366Z,1.35
2023-05-20T16:41:05.968Z,1.10
2023-05-20T16:43:32.647Z,1.17
2023-05-20T16:45:59.314Z,0.90
2023-05-20T16:48:26.848Z,0.90
2023-05-20T16:50:53.318Z,0.80
2023-05-20T16:53:19.785Z,0.95
2023-05-20T16:55:47.211Z,0.90
2023-05-20T16:58:13.776Z,0.90
2023-05-20T17:00:40.221Z,1.00
2023-05-20T17:03:07.093Z,0.85
2023-05-20T17:05:33.609Z,1.10
2023-05-20T17:08:00.876Z,1.08
2023-05-20T17:10:28.984Z,0.98
2023-05-20T17:12:55.780Z,0.98
2023-05-20T17:15:23.650Z,0.90
2023-05-20T17:17:50.786Z,1.00
2023-05-20T17:20:17.630Z,0.85
2023-05-20T17:22:44.239Z,1.08
2023-05-20T17:25:11.037Z,1.02
2023-05-20T17:27:37.618Z,1.00
2023-05-20T17:30:04.232Z,0.90
2023-05-20T17:32:30.798Z,1.20
2023-05-20T17:34:57.365Z,1.10
2023-05-20T17:37:23.789Z,1.00
2023-05-20T17:39:50.294Z,0.77
2023-05-20T17:42:16.801Z,0.80
2023-05-20T17:44:43.339Z,0.75
2023-05-20T17:47:09.816Z,0.90
2023-05-20T17:49:36.445Z,0.75
2023-05-20T17:52:02.885Z,0.80
2023-05-20T17:54:29.425Z,0.60
2023-05-20T17:56:55.858Z,0.70
2023-05-20T17:59:22.395Z,0.90
2023-05-20T18:01:48.993Z,0.70
2023-05-20T18:04:16.767Z,0.85
2023-05-20T18:06:43.272Z,0.82
2023-05-20T18:09:09.956Z,0.80
2023-05-20T18:11:36.627Z,0.93
2023-05-20T18:14:03.147Z,0.70
2023-05-20T18:16:30.759Z,0.80
2023-05-20T18:18:57.868Z,0.85
2023-05-20T18:21:24.764Z,0.70
2023-05-20T18:23:53.014Z,0.70
2023-05-20T18:26:19.659Z,0.55
2023-05-20T18:28:46.342Z,0.70
2023-05-20T18:31:13.025Z,0.70
2023-05-20T18:33:40.976Z,0.73
2023-05-20T18:36:07.734Z,0.70
2023-05-20T18:38:34.290Z,1.10
2023-05-20T18:41:08.333Z,0.70
2023-05-20T18:43:39.436Z,0.73
2023-05-20T18:46:07.504Z,0.63
2023-05-20T18:48:34.097Z,0.70
2023-05-20T18:51:01.696Z,0.88
2023-05-20T18:53:28.677Z,0.52
2023-05-20T18:55:56.936Z,0.70
2023-05-20T18:58:25.879Z,0.70
2023-05-20T19:00:52.382Z,0.77
2023-05-20T19:03:18.897Z,0.80
2023-05-20T19:05:48.340Z,0.75
2023-05-20T19:08:15.062Z,0.80
2023-05-20T19:10:41.860Z,0.95
2023-05-20T19:13:08.340Z,0.75
2023-05-20T19:15:35.010Z,0.85
2023-05-20T19:18:01.700Z,1.10
2023-05-20T19:20:28.180Z,0.80
2023-05-20T19:22:54.688Z,0.98
2023-05-20T19:25:21.179Z,0.93
2023-05-20T19:27:47.759Z,1.05
2023-05-20T19:30:14.320Z,0.70
2023-05-20T19:32:40.957Z,0.80
2023-05-20T19:35:07.723Z,1.20
2023-05-20T19:37:34.218Z,0.80
2023-05-20T19:40:01.353Z,0.73
2023-05-20T19:42:27.883Z,0.82
2023-05-20T19:44:54.384Z,0.90
2023-05-20T19:47:21.383Z,1.00
2023-05-20T19:49:48.277Z,0.90
2023-05-20T19:52:14.745Z,1.10
2023-05-20T19:54:42.963Z,0.75
2023-05-20T19:57:09.792Z,1.00
2023-05-20T19:59:38.076Z,0.88
2023-05-20T20:02:06.022Z,0.83
2023-05-20T20:04:36.758Z,1.13
2023-05-20T20:07:03.641Z,1.10
2023-05-20T20:09:30.174Z,0.90
2023-05-20T20:11:56.727Z,1.13
2023-05-20T20:14:23.188Z,0.93
2023-05-20T20:16:49.706Z,0.77
2023-05-20T20:19:22.846Z,0.88
2023-05-20T20:21:52.239Z,0.90
2023-05-20T20:24:19.120Z,0.80
2023-05-20T20:26:48.385Z,1.00
2023-05-20T20:29:15.122Z,0.90
2023-05-20T20:31:41.957Z,0.90
2023-05-20T20:34:08.629Z,1.95
2023-05-20T20:36:35.093Z,0.95
2023-05-20T20:39:05.187Z,1.10
2023-05-20T20:41:32.285Z,0.90
2023-05-20T20:43:59.351Z,1.02
2023-05-20T20:46:27.709Z,1.17
2023-05-20T20:48:54.457Z,0.88
2023-05-20T20:51:21.224Z,0.90
2023-05-20T20:53:48.780Z,0.93
2023-05-20T20:56:15.389Z,1.00
2023-05-20T20:58:41.953Z,0.95
2023-05-20T21:01:10.114Z,1.00
2023-05-20T21:03:40.556Z,0.80
2023-05-20T21:06:07.548Z,1.00
2023-05-20T21:08:34.007Z,1.17
2023-05-20T21:11:00.479Z,1.45
2023-05-20T21:13:27.551Z,1.00
2023-05-20T21:15:54.309Z,0.90
2023-05-20T21:18:22.576Z,1.13
2023-05-20T21:20:49.682Z,1.20
2023-05-20T21:23:16.109Z,1.20
2023-05-20T21:25:43.049Z,1.10
2023-05-20T21:28:09.548Z,2.05
2023-05-20T21:30:36.154Z,1.30
2023-05-20T21:33:02.804Z,0.90
2023-05-20T21:35:29.421Z,1.20
2023-05-20T21:37:58.293Z,1.30
2023-05-20T21:40:24.860Z,1.02
2023-05-20T21:42:51.389Z,1.00
2023-05-20T21:45:17.896Z,1.00
2023-05-20T21:47:46.280Z,1.05
2023-05-20T21:50:13.101Z,1.00
2023-05-20T21:52:42.386Z,1.10
2023-05-20T21:55:11.511Z,1.02
2023-05-20T21:57:37.975Z,1.20
2023-05-20T22:00:11.522Z,1.27
2023-05-20T22:02:38.174Z,1.20
2023-05-20T22:05:05.188Z,1.20
2023-05-20T22:07:33.034Z,1.15
2023-05-20T22:10:00.055Z,1.58
2023-05-20T22:12:27.755Z,1.27
2023-05-20T22:14:57.144Z,1.50
2023-05-20T22:19:50.928Z,1.05
2023-05-20T22:22:17.393Z,1.23
2023-05-20T22:24:49.435Z,1.30
2023-05-20T22:27:16.103Z,1.05
2023-05-20T22:29:42.592Z,1.52
2023-05-20T22:32:09.173Z,1.50
2023-05-20T22:34:35.592Z,1.30
2023-05-20T22:37:02.990Z,1.50
2023-05-20T22:39:29.423Z,1.48
2023-05-20T22:41:55.972Z,1.58
2023-05-20T22:44:22.486Z,1.23
2023-05-20T22:46:49.268Z,1.38
2023-05-20T22:49:18.601Z,1.73
2023-05-20T22:51:45.237Z,1.77
2023-05-20T22:54:11.692Z,1.50
2023-05-20T22:56:38.111Z,1.73
2023-05-20T22:59:04.611Z,1.30
2023-05-20T23:01:31.233Z,1.60
2023-05-20T23:03:57.893Z,1.20
2023-05-20T23:06:25.461Z,1.20
2023-05-20T23:08:52.523Z,1.33
2023-05-20T23:11:18.985Z,1.20
2023-05-20T23:13:45.398Z,1.48
2023-05-20T23:16:11.930Z,1.55
2023-05-20T23:18:38.323Z,1.20
2023-05-20T23:21:04.812Z,1.25
2023-05-20T23:23:32.402Z,1.48
2023-05-20T23:25:59.215Z,1.40
2023-05-20T23:28:26.148Z,1.30
2023-05-20T23:30:52.631Z,1.30
2023-05-20T23:33:24.393Z,1.48
2023-05-20T23:35:51.752Z,1.48
2023-05-20T23:38:18.363Z,1.17
2023-05-20T23:40:44.793Z,1.30
2023-05-20T23:43:11.221Z,1.27
2023-05-20T23:45:37.863Z,1.30
2023-05-20T23:48:04.722Z,1.63
2023-05-20T23:50:32.674Z,1.65
2023-05-20T23:52:59.294Z,1.27
2023-05-20T23:55:25.714Z,1.27
2023-05-20T23:57:52.248Z,1.40
